Data for 05/28/2006

Time Sea-Level Adjusted Pressure Absolute Pressure Temperature Relative Humidity Dew Point   
(mb) (inHg) (mb) (inHg) (C) (F) (%) (C) (F)
00:05 1009 29.8 838 24.75 3.7 38.7 92 2.5 36.5
00:10 1009 29.8 838 24.75 3.6 38.4 91 2.2 35.9
00:15 1008 29.77 838 24.75 3.6 38.6 91 2.3 36.2
00:20 1009 29.8 838 24.75 3.8 38.9 90 2.3 36.1
00:25 1009 29.8 838 24.75 3.9 39 89 2.3 36.1
00:30 1009 29.8 838 24.75 3.9 39.1 90 2.4 36.4
00:35 1009 29.8 838 24.75 3.9 39 90 2.4 36.4
00:40 1009 29.8 838 24.75 3.8 38.9 91 2.5 36.4
00:45 1009 29.8 838 24.75 3.9 39 90 2.4 36.3
00:50 1009 29.8 838 24.75 3.7 38.7 91 2.4 36.3
00:55 1009 29.8 838 24.75 3.7 38.6 90 2.2 36
01:00 1009 29.8 838 24.75 3.6 38.6 91 2.2 36
01:05 1009 29.8 838 24.75 3.8 38.8 90 2.3 36.1
01:10 1009 29.8 838 24.75 3.9 39 89 2.3 36.1
01:15 1009 29.8 838 24.75 4 39.1 90 2.5 36.4
01:20 1009 29.8 838 24.75 4 39.2 90 2.5 36.5
01:25 1009 29.8 838 24.75 4 39.1 90 2.4 36.3
01:30 1009 29.8 838 24.75 4 39.1 90 2.5 36.4
01:35 1009 29.8 838 24.75 3.7 38.7 92 2.6 36.6
01:40 1009 29.8 838 24.75 3.5 38.3 94 2.6 36.7
01:45 1009 29.8 838 24.75 3.5 38.3 93 2.5 36.6
01:50 1009 29.8 838 24.75 3.3 38 95 2.6 36.7
01:55 1009 29.8 838 24.75 3.4 38.2 94 2.6 36.7
02:00 1009 29.8 838 24.75 3.6 38.5 94 2.7 36.8
02:05 1009 29.8 838 24.75 3.7 38.6 93 2.7 36.8
02:10 1009 29.8 838 24.75 3.7 38.7 92 2.5 36.6
02:15 1009 29.8 838 24.75 3.6 38.6 92 2.4 36.3
02:20 1009 29.8 838 24.75 3.6 38.5 92 2.4 36.4
02:25 1009 29.8 838 24.75 3.6 38.5 91 2.3 36.1
02:30 1009 29.8 838 24.75 3.6 38.5 91 2.3 36.2
02:35 1009 29.8 838 24.75 3.6 38.6 91 2.4 36.2
02:40 1009 29.8 838 24.75 3.6 38.5 92 2.4 36.3
02:45 1009 29.8 838 24.75 3.6 38.5 92 2.5 36.5
02:50 1009 29.8 838 24.75 3.5 38.3 93 2.4 36.4
02:55 1009 29.8 838 24.75 3.4 38.1 93 2.3 36.1
03:00 1009 29.8 838 24.75 3.3 38 92 2.2 35.9
03:05 1009 29.8 838 24.75 3.3 38 92 2.2 35.9
03:10 1009 29.8 838 24.75 3.3 37.9 93 2.2 36
03:15 1009 29.8 838 24.75 3.2 37.8 93 2.2 35.9
03:20 1009 29.8 838 24.75 3.2 37.7 93 2.1 35.7
03:25 1009 29.8 838 24.75 3.1 37.6 94 2.2 35.9
03:30 1009 29.8 838 24.75 3.1 37.5 94 2.2 35.9
03:35 1009 29.8 838 24.75 3 37.5 94 2.2 35.9
03:40 1009 29.8 838 24.75 3 37.4 94 2.2 36
03:45 1009 29.8 838 24.75 3 37.4 95 2.2 36
03:50 1009 29.8 838 24.75 3 37.4 95 2.3 36.1
03:55 1009 29.8 838 24.75 3 37.4 95 2.3 36.1
04:00 1009 29.8 838 24.75 2.9 37.2 96 2.2 36
04:05 1009 29.8 838 24.75 2.9 37.2 96 2.3 36.1
04:10 1009 29.8 838 24.75 2.9 37.2 96 2.3 36.2
04:15 1009 29.8 838 24.75 2.8 37.1 96 2.3 36.1
04:20 1009 29.8 838 24.75 2.8 37 97 2.3 36.2
04:25 1009 29.8 838 24.75 2.9 37.2 97 2.5 36.4
04:30 1009 29.8 838 24.75 3.1 37.5 96 2.5 36.6
04:35 1009 29.8 838 24.75 3 37.4 96 2.5 36.5
04:40 1009 29.8 838 24.75 3 37.4 97 2.5 36.5
04:45 1009 29.8 838 24.75 3 37.3 97 2.5 36.4
04:50 1009 29.8 838 24.75 3 37.3 97 2.5 36.4
04:55 1009 29.8 838 24.75 3.1 37.5 97 2.6 36.7
05:00 1009 29.8 838 24.75 3.1 37.6 96 2.6 36.6
05:05 1009 29.8 838 24.75 3.2 37.7 96 2.6 36.6
05:10 1009 29.8 838 24.75 3 37.5 96 2.5 36.4
05:15 1009 29.8 838 24.75 2.9 37.3 97 2.4 36.4
05:20 1009 29.8 838 24.75 3 37.5 97 2.5 36.6
05:25 1009 29.8 838 24.75 3.1 37.6 96 2.6 36.6
05:30 1009 29.8 838 24.75 3.1 37.5 96 2.5 36.4
05:35 1009 29.8 838 24.75 3.1 37.6 95 2.4 36.3
05:40 1009 29.8 838 24.75 3.1 37.7 95 2.4 36.4
05:45 1009 29.8 838 24.75 3.2 37.7 95 2.4 36.3
05:50 1009 29.8 838 24.75 3.2 37.8 95 2.4 36.4
05:55 1009 29.8 839 24.78 3.2 37.8 94 2.4 36.3
06:00 1009 29.8 838 24.75 3.4 38 94 2.4 36.4
06:05 1009 29.8 838 24.75 3.5 38.2 92 2.3 36.1
06:10 1009 29.8 839 24.78 3.5 38.2 92 2.3 36.2
06:15 1009 29.8 839 24.78 3.3 38 94 2.4 36.3
06:20 1009 29.8 839 24.78 3.3 37.9 94 2.5 36.4
06:25 1009 29.8 839 24.78 3.3 37.9 94 2.4 36.3
06:30 1009 29.8 839 24.78 3.3 38 93 2.4 36.2
06:35 1009 29.8 839 24.78 3.5 38.3 93 2.4 36.3
06:40 1009 29.8 839 24.78 3.5 38.3 93 2.4 36.4
06:45 1009 29.8 839 24.78 3.6 38.4 93 2.5 36.6
06:50 1009 29.8 839 24.78 3.6 38.4 92 2.3 36.2
06:55 1009 29.8 839 24.78 3.5 38.3 92 2.4 36.3
07:00 1009 29.8 839 24.78 3.6 38.6 93 2.6 36.6
07:05 1009 29.8 839 24.78 3.8 38.8 92 2.6 36.7
07:10 1009 29.8 839 24.78 3.8 38.9 92 2.6 36.7
07:15 1009 29.8 839 24.78 3.8 38.9 91 2.6 36.6
07:20 1009 29.8 839 24.78 3.7 38.7 91 2.5 36.4
07:25 1009 29.8 839 24.78 3.8 38.8 91 2.5 36.5
07:30 1009 29.8 839 24.78 3.8 38.9 91 2.5 36.5
07:35 1009 29.8 839 24.78 3.8 38.9 91 2.4 36.4
07:40 1010 29.83 839 24.78 3.9 39 90 2.4 36.4
07:45 1009 29.8 839 24.78 3.9 39.1 90 2.5 36.5
07:50 1009 29.8 839 24.78 4.1 39.4 89 2.6 36.6
07:55 1009 29.8 839 24.78 4.2 39.6 89 2.5 36.6
08:00 1009 29.8 839 24.78 4.3 39.7 89 2.6 36.6
08:05 1010 29.83 839 24.78 4.4 39.9 89 2.7 36.8
08:10 1010 29.83 839 24.78 4.3 39.7 88 2.5 36.6
08:15 1010 29.83 839 24.78 4.4 39.9 87 2.4 36.4
08:20 1010 29.83 839 24.78 4.5 40.1 88 2.7 36.9
08:25 1010 29.83 839 24.78 4.7 40.4 87 2.8 37
08:30 1010 29.83 839 24.78 4.8 40.7 87 2.9 37.2
08:35 1010 29.83 839 24.78 5 40.9 86 2.8 37
08:40 1010 29.83 839 24.78 4.9 40.9 85 2.7 36.8
08:45 1010 29.83 839 24.78 4.5 40.2 87 2.6 36.7
08:50 1010 29.83 839 24.78 4.4 39.8 89 2.7 36.8
08:55 1010 29.83 839 24.78 4.7 40.4 87 2.8 37
09:00 1010 29.83 839 24.78 4.9 40.9 86 2.7 36.9
09:05 1010 29.83 839 24.78 5.2 41.4 84 2.7 36.9
09:10 1010 29.83 839 24.78 5.4 41.8 84 3 37.4
09:15 1010 29.83 839 24.78 5.5 41.9 84 3 37.4
09:20 1010 29.83 839 24.78 5.6 42.1 81 2.6 36.7
09:25 1010 29.83 839 24.78 6.3 43.3 80 3 37.4
09:30 1010 29.83 839 24.78 6.5 43.6 78 2.9 37.2
09:35 1010 29.83 839 24.78 5.8 42.4 82 2.9 37.3
09:40 1010 29.83 839 24.78 5.7 42.3 82 2.9 37.3
09:45 1010 29.83 839 24.78 5.9 42.5 82 3 37.3
09:50 1010 29.83 839 24.78 6 42.8 80 2.9 37.2
09:55 1010 29.83 839 24.78 6.1 42.9 80 2.9 37.2
10:00 1010 29.83 839 24.78 6 42.9 81 3 37.4
10:05 1010 29.83 839 24.78 6.8 44.2 77 3.1 37.6
10:10 1010 29.83 840 24.81 7.5 45.4 74 3.2 37.8
10:15 1010 29.83 840 24.81 7.2 44.9 80 4 39.3
10:20 1011 29.85 840 24.81 6.6 44 82 3.8 38.9
10:25 1010 29.83 840 24.81 6 42.8 87 4 39.2
10:30 1010 29.83 840 24.81 5.9 42.6 87 3.9 39.1
10:35 1011 29.85 840 24.81 6 42.7 87 3.9 39.1
10:40 1011 29.85 840 24.81 6.1 43 84 3.5 38.4
10:45 1010 29.83 840 24.81 6.1 42.9 84 3.6 38.5
10:50 1010 29.83 840 24.81 5.8 42.4 89 4.1 39.4
10:55 1010 29.83 840 24.81 6.1 43 85 3.8 38.9
11:00 1010 29.83 840 24.81 6.2 43.1 86 4 39.3
11:05 1011 29.85 840 24.81 6.3 43.4 87 4.3 39.7
11:10 1011 29.85 840 24.81 7 44.5 81 4 39.2
11:15 1011 29.85 840 24.81 7.4 45.3 78 3.9 39
11:20 1011 29.85 840 24.81 6.6 43.9 81 3.6 38.5
11:25 1011 29.85 840 24.81 6.8 44.2 82 3.9 39
11:30 1011 29.85 840 24.81 6.9 44.5 84 4.4 39.8
11:35 1011 29.85 840 24.81 7.3 45.1 80 4 39.3
11:40 1011 29.85 840 24.81 7.2 44.9 79 3.9 39
11:45 1011 29.85 840 24.81 7.2 44.9 82 4.3 39.7
11:50 1011 29.85 840 24.81 7.8 46 78 4.2 39.6
11:55 1011 29.85 840 24.81 7.6 45.7 78 4 39.3
12:00 1011 29.85 840 24.81 7.3 45.1 78 3.6 38.5
12:05 1011 29.85 840 24.81 8.5 47.2 68 3 37.4
12:10 1011 29.85 840 24.81 8.9 47.9 72 4.2 39.5
12:15 1011 29.85 840 24.81 9.8 49.6 63 3 37.5
12:20 1011 29.85 840 24.81 9.9 49.7 65 3.6 38.4
12:25 1011 29.85 840 24.81 9.9 49.9 61 2.7 36.9
12:30 1011 29.85 840 24.81 10 49.9 62 3.2 37.7
12:35 1011 29.85 840 24.81 9.7 49.5 62 2.7 36.9
12:40 1011 29.85 840 24.81 10 50 61 2.9 37.3
12:45 1011 29.85 840 24.81 9.7 49.5 60 2.3 36.1
12:50 1010 29.83 840 24.81 10.3 50.5 59 2.7 36.8
12:55 1010 29.83 840 24.81 9.9 49.9 58 2 35.6
13:00 1010 29.83 840 24.81 10.3 50.5 58 2.4 36.4
13:05 1010 29.83 840 24.81 11.6 52.9 56 3.2 37.7
13:10 1010 29.83 840 24.81 11.3 52.4 59 3.6 38.4
13:15 1010 29.83 840 24.81 11 51.9 55 2.5 36.5
13:20 1010 29.83 840 24.81 10.7 51.2 59 2.9 37.3
13:25 1010 29.83 839 24.78 10.1 50.1 59 2.4 36.4
13:30 1010 29.83 839 24.78 10.6 51.1 55 2 35.5
13:35 1010 29.83 839 24.78 11.7 53 53 2.5 36.4
13:40 1010 29.83 839 24.78 12.4 54.2 50 2.4 36.2
13:45 1010 29.83 839 24.78 12.6 54.7 48 1.9 35.4
13:50 1010 29.83 839 24.78 12.2 54 48 1.7 35
13:55 1010 29.83 839 24.78 11.8 53.2 49 1.4 34.6
14:00 1010 29.83 839 24.78 12.2 54 47 1.4 34.5
14:05 1010 29.83 839 24.78 12.2 53.9 46 1 33.9
14:10 1010 29.83 839 24.78 12.3 54.1 49 2 35.6
14:15 1010 29.83 839 24.78 12.5 54.5 47 1.7 35
14:20 1010 29.83 839 24.78 11.9 53.5 48 1.4 34.5
14:25 1010 29.83 839 24.78 11.8 53.3 50 1.7 35.1
14:30 1010 29.83 839 24.78 12.7 54.9 44 1 33.8
14:35 1010 29.83 839 24.78 13.5 56.2 46 2.1 35.7
14:40 1010 29.83 839 24.78 12.9 55.3 47 1.8 35.3
14:45 1010 29.83 839 24.78 12.4 54.4 47 1.4 34.6
14:50 1010 29.83 839 24.78 12.3 54.1 46 1 33.9
14:55 1010 29.83 839 24.78 12.2 54 47 1.4 34.5
15:00 1010 29.83 839 24.78 13.1 55.6 46 1.7 35.1
15:05 1010 29.83 839 24.78 13.2 55.8 45 1.7 35
15:10 1010 29.83 839 24.78 12.9 55.2 44 1.1 34
15:15 1010 29.83 839 24.78 13.1 55.6 44 1.3 34.4
15:20 1010 29.83 840 24.81 13.7 56.7 42 1.2 34.1
15:25 1010 29.83 840 24.81 14.5 58.1 46 3.2 37.7
15:30 1010 29.83 839 24.78 12.7 54.9 50 2.6 36.7
15:35 1010 29.83 840 24.81 12.3 54.1 50 2.2 36
15:40 1010 29.83 840 24.81 12.4 54.2 48 1.6 34.9
15:45 1010 29.83 840 24.81 12.5 54.4 46 1.3 34.4
15:50 1010 29.83 840 24.81 12.5 54.5 44 0.7 33.3
15:55 1010 29.83 840 24.81 11.6 52.8 46 0.4 32.7
16:00 1010 29.83 840 24.81 11.1 52.1 48 0.6 33
16:05 1010 29.83 840 24.81 10.6 51.1 51 0.9 33.6
16:10 1010 29.83 840 24.81 10.3 50.6 53 1.1 33.9
16:15 1010 29.83 839 24.78 9.6 49.3 53 0.6 33
16:20 1011 29.85 840 24.81 9.3 48.8 53 0.3 32.6
16:25 1011 29.85 840 24.81 9.8 49.7 52 0.6 33.1
16:30 1011 29.85 840 24.81 9.8 49.7 53 0.7 33.3
16:35 1011 29.85 841 24.83 9.7 49.5 55 1.3 34.3
16:40 1011 29.85 841 24.83 9.5 49.1 57 1.4 34.5
16:45 1012 29.88 841 24.83 8.7 47.6 60 1.5 34.7
16:50 1012 29.88 841 24.83 8.7 47.7 61 1.5 34.8
16:55 1012 29.88 841 24.83 9.2 48.6 59 1.7 35.1
17:00 1012 29.88 841 24.83 9.7 49.5 59 2 35.6
17:05 1012 29.88 841 24.83 9 48.3 60 1.7 35.1
17:10 1012 29.88 841 24.83 8.7 47.7 61 1.6 34.8
17:15 1012 29.88 841 24.83 8.8 47.8 59 1.2 34.2
17:20 1012 29.88 841 24.83 8.9 48.1 58 1.1 34
17:25 1012 29.88 841 24.83 9.2 48.6 56 1 33.8
17:30 1012 29.88 841 24.83 9.2 48.5 58 1.3 34.4
17:35 1012 29.88 841 24.83 9 48.2 58 1.2 34.1
17:40 1012 29.88 841 24.83 9.1 48.4 60 1.8 35.3
17:45 1012 29.88 841 24.83 8.8 47.9 69 3.5 38.3
17:50 1012 29.88 842 24.86 8.3 47 73 3.7 38.7
17:55 1012 29.88 842 24.86 8 46.4 73 3.4 38.1
18:00 1013 29.91 842 24.86 8.2 46.8 71 3.4 38
18:05 1013 29.91 842 24.86 8.5 47.3 67 2.7 36.9
18:10 1013 29.91 842 24.86 8.5 47.3 69 3.1 37.6
18:15 1013 29.91 842 24.86 9.1 48.3 64 2.7 36.9
18:20 1013 29.91 842 24.86 9.3 48.7 64 2.9 37.2
18:25 1013 29.91 842 24.86 9 48.2 65 2.8 37.1
18:30 1013 29.91 842 24.86 9.2 48.5 62 2.3 36.1
18:35 1013 29.91 842 24.86 9.4 48.9 56 1.2 34.2
18:40 1013 29.91 842 24.86 9.2 48.6 52 -0.1 31.8
18:45 1013 29.91 842 24.86 8.8 47.9 54 0.2 32.3
18:50 1013 29.91 842 24.86 8.8 47.8 52 -0.6 30.9
18:55 1013 29.91 842 24.86 8.5 47.4 51 -0.9 30.4
19:00 1013 29.91 842 24.86 8.6 47.5 55 -0 32
19:05 1013 29.91 843 24.89 8.3 47 55 -0.3 31.5
19:10 1014 29.94 843 24.89 8.1 46.7 57 0.3 32.5
19:15 1014 29.94 843 24.89 8.2 46.8 57 0.3 32.6
19:20 1014 29.94 843 24.89 8.5 47.3 55 -0.1 31.8
19:25 1014 29.94 843 24.89 8.4 47.2 55 -0 32
19:30 1014 29.94 843 24.89 8 46.3 58 0.2 32.3
19:35 1014 29.94 843 24.89 8 46.4 60 0.7 33.2
19:40 1014 29.94 843 24.89 8.3 46.9 59 0.8 33.5
19:45 1014 29.94 843 24.89 8.5 47.2 60 1.1 34
19:50 1014 29.94 843 24.89 8.2 46.7 62 1.3 34.4
19:55 1014 29.94 843 24.89 8.1 46.5 63 1.6 34.9
20:00 1014 29.94 843 24.89 8.1 46.6 67 2.3 36.1
20:05 1014 29.94 843 24.89 8 46.3 68 2.4 36.4
20:10 1014 29.94 843 24.89 7.7 45.8 68 2.2 36
20:15 1014 29.94 844 24.92 7.4 45.3 71 2.4 36.4
20:20 1014 29.94 844 24.92 7.3 45.1 72 2.5 36.5
20:25 1015 29.97 844 24.92 7.2 45 71 2.4 36.3
20:30 1015 29.97 844 24.92 7 44.7 72 2.4 36.3
20:35 1015 29.97 844 24.92 6.8 44.3 74 2.5 36.4
20:40 1015 29.97 844 24.92 6.8 44.2 74 2.5 36.5
20:45 1015 29.97 844 24.92 6.6 43.9 75 2.5 36.5
20:50 1015 29.97 844 24.92 6.6 43.9 76 2.6 36.7
20:55 1015 29.97 844 24.92 6.6 43.9 77 2.8 37
21:00 1015 29.97 844 24.92 6.5 43.7 78 3 37.4
21:05 1015 29.97 844 24.92 6.4 43.5 81 3.3 37.9
21:10 1015 29.97 844 24.92 6.3 43.4 81 3.4 38.1
21:15 1015 29.97 844 24.92 6.3 43.3 83 3.6 38.5
21:20 1015 29.97 844 24.92 6.2 43.2 82 3.4 38.1
21:25 1015 29.97 844 24.92 6.2 43.1 83 3.6 38.4
21:30 1015 29.97 844 24.92 6.1 43 85 3.7 38.7
21:35 1015 29.97 845 24.95 6.1 42.9 86 3.9 39
21:40 1015 29.97 845 24.95 5.9 42.7 87 4 39.2
21:45 1016 30 845 24.95 5.9 42.6 86 3.8 38.8
21:50 1016 30 845 24.95 5.9 42.6 86 3.8 38.8
21:55 1016 30 845 24.95 6 42.9 85 3.6 38.6
22:00 1016 30 845 24.95 6.1 43.1 84 3.6 38.5
22:05 1016 30 845 24.95 5.9 42.6 89 4.1 39.4
22:10 1016 30 845 24.95 5.7 42.2 89 3.9 39.1
22:15 1016 30 845 24.95 5.8 42.5 87 3.8 38.8
22:20 1016 30 845 24.95 6 42.7 85 3.7 38.7
22:25 1016 30 845 24.95 5.9 42.7 86 3.8 38.8
22:30 1016 30 845 24.95 5.9 42.5 86 3.6 38.6
22:35 1016 30 845 24.95 5.7 42.3 85 3.5 38.2
22:40 1016 30 845 24.95 5.7 42.3 84 3.2 37.7
22:45 1016 30 845 24.95 5.8 42.4 85 3.4 38.2
22:50 1016 30 845 24.95 5.7 42.3 85 3.4 38.1
22:55 1016 30 845 24.95 5.8 42.4 85 3.5 38.3
23:00 1016 30 845 24.95 5.8 42.4 86 3.7 38.6
23:05 1016 30 845 24.95 5.7 42.2 88 3.9 38.9
23:10 1016 30 845 24.95 5.5 41.9 88 3.7 38.7
23:15 1016 30 845 24.95 5.4 41.7 89 3.7 38.6
23:20 1016 30 845 24.95 5.5 41.9 88 3.7 38.6
23:25 1016 30 845 24.95 5.4 41.8 88 3.6 38.5
23:30 1016 30 845 24.95 5.5 41.9 88 3.6 38.5
23:35 1016 30 845 24.95 5.6 42.1 86 3.4 38.2
23:40 1016 30 845 24.95 5.7 42.3 85 3.4 38.1
23:45 1016 30 845 24.95 5.8 42.5 85 3.6 38.4
23:50 1016 30 845 24.95 5.9 42.6 85 3.6 38.4
23:55 1016 30 845 24.95 5.9 42.6 85 3.6 38.5
24:00 1016 30 845 24.95 5.9 42.6 85 3.6 38.5